Time;durP1;ratioP1;P1;durP2;ratioP2;P2;SDS_P1;SDS_P2;PMS_P1;PMS_P2;Temp;Humidity;BMP_temperature;BMP_pressure;BME280_temperature;BME280_humidity;BME280_pressure;Samples;Min_cycle;Max_cycle;Signal;HPM_P1;HPM_P2
2021/10/01 00:00:18;;;;;;;1.77;1.40;;;4.30;95.30;;;;;;2081132;28;20224;-65
2021/10/01 00:01:19;;;;;;;2.03;1.60;;;4.20;95.20;;;;;;2081289;28;20220;-68
2021/10/01 00:02:20;;;;;;;1.90;1.30;;;4.20;95.20;;;;;;2081588;28;20174;-66
2021/10/01 00:03:20;;;;;;;1.60;1.27;;;4.20;95.30;;;;;;2081547;28;20187;-66
2021/10/01 00:04:23;;;;;;;1.73;1.40;;;4.20;95.20;;;;;;2081582;28;20713;-67
2021/10/01 00:05:24;;;;;;;3.38;1.42;;;4.20;95.20;;;;;;2080716;28;20173;-66
2021/10/01 00:06:25;;;;;;;1.58;1.23;;;4.10;95.20;;;;;;2080772;28;20649;-68
2021/10/01 00:07:27;;;;;;;5.37;1.50;;;4.10;95.20;;;;;;2081455;28;20199;-66
2021/10/01 00:08:28;;;;;;;1.88;1.30;;;4.10;95.10;;;;;;2081362;28;20183;-67
2021/10/01 00:09:29;;;;;;;2.80;1.43;;;4.10;94.90;;;;;;2081568;28;20190;-65
2021/10/01 00:10:29;;;;;;;1.67;1.20;;;4.10;95.00;;;;;;2081516;28;20647;-66
2021/10/01 00:11:31;;;;;;;1.70;1.37;;;4.20;94.90;;;;;;2081311;28;20180;-65
2021/10/01 00:12:33;;;;;;;1.95;1.45;;;4.10;95.10;;;;;;2080902;28;20191;-65
2021/10/01 00:13:33;;;;;;;2.25;1.45;;;4.10;95.30;;;;;;2080852;28;20194;-67
2021/10/01 00:14:36;;;;;;;2.73;1.40;;;4.10;95.30;;;;;;2081416;28;20589;-65
2021/10/01 00:15:36;;;;;;;1.67;1.30;;;4.10;95.20;;;;;;2081759;28;20182;-65
2021/10/01 00:16:37;;;;;;;1.77;1.30;;;4.10;95.50;;;;;;2081621;28;20235;-65
2021/10/01 00:17:38;;;;;;;2.03;1.30;;;4.10;95.70;;;;;;2081639;28;20185;-66
2021/10/01 00:18:38;;;;;;;1.60;1.33;;;4.00;95.70;;;;;;2081533;28;20188;-65
2021/10/01 00:19:39;;;;;;;1.57;1.20;;;4.10;95.70;;;;;;2080992;28;20530;-65
2021/10/01 00:20:40;;;;;;;1.70;1.30;;;4.10;95.70;;;;;;2081068;28;20215;-66
2021/10/01 00:21:41;;;;;;;1.23;1.07;;;4.10;95.60;;;;;;2080749;28;20189;-65
2021/10/01 00:22:42;;;;;;;2.20;1.27;;;4.00;95.50;;;;;;2072834;28;20182;-66
2021/10/01 00:23:42;;;;;;;1.43;1.20;;;4.00;95.60;;;;;;2080932;28;20213;-65
2021/10/01 00:24:43;;;;;;;1.60;1.30;;;4.00;95.80;;;;;;2081592;28;20184;-65
2021/10/01 00:25:44;;;;;;;1.10;1.00;;;4.00;95.80;;;;;;2080789;28;20183;-65
2021/10/01 00:26:45;;;;;;;2.33;1.30;;;4.00;95.60;;;;;;2075505;28;20450;-65
2021/10/01 00:27:46;;;;;;;3.65;1.73;;;4.00;95.60;;;;;;2072794;28;20195;-65
2021/10/01 00:28:47;;;;;;;3.70;1.43;;;4.00;95.70;;;;;;2072717;28;20201;-65
2021/10/01 00:29:48;;;;;;;4.93;1.37;;;4.00;95.80;;;;;;2073415;28;20237;-65
2021/10/01 00:30:49;;;;;;;1.42;1.30;;;4.00;95.70;;;;;;2073227;28;20180;-65
2021/10/01 00:31:50;;;;;;;1.80;1.20;;;4.00;95.90;;;;;;2073258;28;20227;-65
2021/10/01 00:32:52;;;;;;;2.65;1.38;;;4.00;95.80;;;;;;2073257;28;20540;-65
2021/10/01 00:33:53;;;;;;;2.13;1.20;;;4.00;96.00;;;;;;2073208;28;20215;-65
2021/10/01 00:34:53;;;;;;;2.00;1.30;;;4.00;95.90;;;;;;2073276;28;20182;-66
2021/10/01 00:35:54;;;;;;;3.77;1.30;;;4.00;96.00;;;;;;2073252;28;20170;-65
2021/10/01 00:36:55;;;;;;;1.50;1.40;;;4.00;96.00;;;;;;2073208;28;20214;-65
2021/10/01 00:37:58;;;;;;;1.93;1.00;;;4.00;96.10;;;;;;2073302;28;20214;-65
2021/10/01 00:38:59;;;;;;;1.10;1.05;;;3.90;96.30;;;;;;2073154;28;20281;-65
2021/10/01 00:40:00;;;;;;;3.17;1.40;;;3.90;96.40;;;;;;2073278;28;20322;-65
2021/10/01 00:41:01;;;;;;;1.63;1.20;;;3.90;96.40;;;;;;2073062;28;20188;-66
2021/10/01 00:42:02;;;;;;;1.80;1.00;;;3.90;96.30;;;;;;2073273;28;20192;-64
2021/10/01 00:43:03;;;;;;;1.40;1.13;;;4.00;96.10;;;;;;2073123;28;20535;-65
2021/10/01 00:44:05;;;;;;;1.38;1.13;;;3.90;96.10;;;;;;2072576;28;20214;-65
2021/10/01 00:45:06;;;;;;;1.40;1.30;;;3.90;96.20;;;;;;2072678;28;20556;-65
2021/10/01 00:46:07;;;;;;;2.13;1.40;;;3.90;96.10;;;;;;2072789;28;20283;-65
2021/10/01 00:47:08;;;;;;;1.20;1.03;;;3.90;96.30;;;;;;2073138;28;20204;-65
2021/10/01 00:48:08;;;;;;;1.70;1.20;;;3.80;96.40;;;;;;2073381;28;20184;-65
2021/10/01 00:49:09;;;;;;;1.83;1.20;;;3.80;96.40;;;;;;2073254;28;20262;-64
2021/10/01 00:50:11;;;;;;;1.97;1.30;;;3.80;96.50;;;;;;2073199;28;20195;-64
2021/10/01 00:51:12;;;;;;;2.80;1.33;;;3.80;96.60;;;;;;2072325;28;20606;-65
2021/10/01 00:52:17;;;;;;;1.48;1.20;;;3.80;96.60;;;;;;2064290;28;20636;-65
2021/10/01 00:53:18;;;;;;;1.77;1.33;;;3.80;96.60;;;;;;2072632;28;20574;-66
2021/10/01 00:54:19;;;;;;;1.87;1.20;;;3.80;96.50;;;;;;2073177;28;20188;-65
2021/10/01 00:55:20;;;;;;;2.63;1.13;;;3.80;96.50;;;;;;2073445;28;20182;-65
2021/10/01 00:56:22;;;;;;;2.65;1.40;;;3.90;96.50;;;;;;2073145;28;20526;-64
2021/10/01 00:57:23;;;;;;;2.30;1.08;;;3.80;96.40;;;;;;2072587;28;20187;-65
2021/10/01 00:58:24;;;;;;;2.60;1.10;;;3.80;96.20;;;;;;2072522;28;20180;-65
2021/10/01 00:59:24;;;;;;;5.33;1.33;;;3.80;96.10;;;;;;2073114;28;20610;-66
2021/10/01 01:00:28;;;;;;;3.27;1.27;;;3.80;96.10;;;;;;2073107;28;20180;-66
2021/10/01 01:01:28;;;;;;;1.85;1.05;;;3.80;96.20;;;;;;2072895;28;20183;-67
2021/10/01 01:02:29;;;;;;;1.50;1.40;;;3.80;96.10;;;;;;2073127;28;20180;-65
2021/10/01 01:03:30;;;;;;;1.55;1.20;;;3.80;96.10;;;;;;2072937;28;20232;-65
2021/10/01 01:04:32;;;;;;;2.80;1.20;;;3.80;96.20;;;;;;2072579;28;20183;-65
2021/10/01 01:06:16;;;;;;;2.17;1.10;;;3.80;96.10;;;;;;2072642;28;20179;-64
2021/10/01 01:07:35;;;;;;;3.72;1.25;;;3.80;96.00;;;;;;2063541;28;20222;-66
2021/10/01 01:08:59;;;;;;;1.70;1.00;;;3.80;96.10;;;;;;2067649;28;20567;-64
2021/10/01 01:10:15;;;;;;;1.33;1.02;;;3.80;96.10;;;;;;2072620;28;20667;-64
2021/10/01 01:11:35;;;;;;;1.50;1.20;;;3.80;96.10;;;;;;2072550;28;20164;-65
2021/10/01 01:12:53;;;;;;;3.33;1.20;;;3.80;96.10;;;;;;2072570;28;20169;-64
2021/10/01 01:14:23;;;;;;;1.00;0.90;;;3.80;96.10;;;;;;2072583;28;20193;-65
2021/10/01 01:15:31;;;;;;;1.83;1.10;;;3.70;96.10;;;;;;2064425;28;20171;-65
2021/10/01 01:16:34;;;;;;;1.75;1.30;;;3.70;96.30;;;;;;2065402;28;20622;-65
2021/10/01 01:18:10;;;;;;;1.33;1.17;;;3.70;96.40;;;;;;2073244;28;20186;-65
2021/10/01 01:19:44;;;;;;;4.20;1.10;;;3.70;96.40;;;;;;2072610;28;20256;-65
2021/10/01 01:20:51;;;;;;;1.15;1.05;;;3.70;96.40;;;;;;2072478;28;20181;-65
2021/10/01 01:22:31;;;;;;;2.65;1.30;;;3.70;96.30;;;;;;2065127;28;20643;-64
2021/10/01 01:24:25;;;;;;;2.28;1.10;;;3.70;96.20;;;;;;2069529;28;20181;-65
2021/10/01 01:25:54;;;;;;;2.05;1.13;;;3.70;96.10;;;;;;2071516;28;20191;-64
2021/10/01 01:27:32;;;;;;;2.13;1.20;;;3.70;96.30;;;;;;2072788;28;20245;-65
2021/10/01 01:28:57;;;;;;;1.10;1.00;;;3.70;96.30;;;;;;2072492;28;20462;-65
2021/10/01 01:30:20;;;;;;;1.17;1.00;;;3.60;96.80;;;;;;2072697;28;20174;-65
2021/10/01 01:31:50;;;;;;;1.20;1.10;;;3.70;96.70;;;;;;2072769;28;20578;-65
2021/10/01 01:32:55;;;;;;;1.75;0.90;;;3.70;96.70;;;;;;2072526;28;20801;-64
2021/10/01 01:33:58;;;;;;;2.92;1.45;;;3.70;96.50;;;;;;2064687;28;20262;-65
2021/10/01 01:35:13;;;;;;;1.52;1.10;;;3.70;96.50;;;;;;2064569;28;20186;-66
2021/10/01 01:36:15;;;;;;;3.20;0.90;;;3.70;96.50;;;;;;2066493;28;20232;-65
2021/10/01 01:37:23;;;;;;;2.83;0.90;;;3.70;96.50;;;;;;2064540;28;20221;-65
2021/10/01 01:38:31;;;;;;;1.55;1.33;;;3.70;96.50;;;;;;2065480;28;20222;-65
2021/10/01 01:39:36;;;;;;;1.70;1.15;;;3.70;96.80;;;;;;2065499;28;20242;-65
2021/10/01 01:40:39;;;;;;;1.92;1.10;;;3.60;96.80;;;;;;2064746;28;20269;-65
2021/10/01 01:41:40;;;;;;;1.35;0.98;;;3.60;96.60;;;;;;2064354;28;20178;-65
2021/10/01 01:42:42;;;;;;;5.17;1.30;;;3.60;96.60;;;;;;2064398;28;20184;-65
2021/10/01 01:43:45;;;;;;;1.98;1.15;;;3.60;96.70;;;;;;2072375;28;20208;-65
2021/10/01 01:44:47;;;;;;;1.10;1.00;;;3.60;96.70;;;;;;2073091;28;20270;-67
2021/10/01 01:45:48;;;;;;;3.00;0.98;;;3.60;96.60;;;;;;2072425;28;20187;-66
2021/10/01 01:46:49;;;;;;;1.23;0.98;;;3.60;96.60;;;;;;2072412;28;20198;-65
2021/10/01 01:47:52;;;;;;;2.20;1.20;;;3.60;96.80;;;;;;2072362;28;20650;-65
2021/10/01 01:48:54;;;;;;;1.52;1.10;;;3.60;96.90;;;;;;2072514;28;20240;-65
2021/10/01 01:49:56;;;;;;;1.15;0.93;;;3.60;96.90;;;;;;2072418;28;20274;-65
2021/10/01 01:50:59;;;;;;;2.60;1.10;;;3.60;96.80;;;;;;2072355;28;20233;-65
2021/10/01 01:52:03;;;;;;;2.60;1.10;;;3.60;96.80;;;;;;2064408;28;20190;-64
2021/10/01 01:53:05;;;;;;;2.30;1.20;;;3.60;97.30;;;;;;2064775;28;20203;-66
2021/10/01 01:54:08;;;;;;;1.17;1.00;;;3.60;96.80;;;;;;2064437;28;20204;-65
2021/10/01 01:55:10;;;;;;;1.70;1.10;;;3.50;96.70;;;;;;2064603;28;20389;-65
2021/10/01 01:56:11;;;;;;;1.20;1.10;;;3.60;96.60;;;;;;2072294;28;20198;-64
2021/10/01 01:57:13;;;;;;;2.03;0.90;;;3.50;96.50;;;;;;2064276;28;20182;-65
2021/10/01 01:58:15;;;;;;;1.52;1.00;;;3.60;96.50;;;;;;2072337;28;20265;-65
2021/10/01 01:59:16;;;;;;;3.67;1.10;;;3.60;96.30;;;;;;2072120;28;20211;-66
2021/10/01 02:00:19;;;;;;;1.07;0.97;;;3.60;96.30;;;;;;2077107;28;20727;-65
2021/10/01 02:01:21;;;;;;;1.00;0.85;;;3.60;96.20;;;;;;2080981;28;20174;-65
2021/10/01 02:02:23;;;;;;;2.58;1.00;;;3.60;96.30;;;;;;2080551;28;20194;-66
2021/10/01 02:03:25;;;;;;;1.30;1.13;;;3.60;96.30;;;;;;2072609;28;20209;-65
2021/10/01 02:04:27;;;;;;;1.75;1.02;;;3.60;96.30;;;;;;2080603;28;20573;-66
2021/10/01 02:05:29;;;;;;;1.50;0.93;;;3.60;96.10;;;;;;2080709;28;20244;-66
2021/10/01 02:06:31;;;;;;;1.17;0.98;;;3.60;96.00;;;;;;2080517;28;20241;-66
2021/10/01 02:07:32;;;;;;;1.38;1.00;;;3.60;95.90;;;;;;2080534;28;20661;-67
2021/10/01 02:08:35;;;;;;;3.03;1.10;;;3.50;95.90;;;;;;2080469;28;20234;-65
2021/10/01 02:09:37;;;;;;;3.13;1.00;;;3.50;96.00;;;;;;2081125;28;20212;-65
2021/10/01 02:10:38;;;;;;;5.63;1.08;;;3.50;96.10;;;;;;2081077;28;20193;-66
2021/10/01 02:11:42;;;;;;;1.65;1.10;;;3.50;96.30;;;;;;2080889;28;20190;-66
2021/10/01 02:12:49;;;;;;;1.10;0.90;;;3.40;96.30;;;;;;2080644;28;20194;-66
2021/10/01 02:13:51;;;;;;;1.30;1.00;;;3.50;96.50;;;;;;2072970;28;20638;-66
2021/10/01 02:14:55;;;;;;;2.05;1.00;;;3.50;96.40;;;;;;2072427;28;20194;-64
2021/10/01 02:15:57;;;;;;;0.70;0.70;;;3.50;96.40;;;;;;2072794;28;20686;-65
2021/10/01 02:16:59;;;;;;;1.23;1.10;;;3.50;96.30;;;;;;2072572;28;20898;-66
2021/10/01 02:18:04;;;;;;;1.00;0.90;;;3.50;96.20;;;;;;2072440;28;20265;-65
2021/10/01 02:19:06;;;;;;;1.90;1.20;;;3.50;96.30;;;;;;2074038;28;20211;-66
2021/10/01 02:20:09;;;;;;;3.97;1.17;;;3.50;96.40;;;;;;2073915;28;20183;-65
2021/10/01 02:21:13;;;;;;;1.45;1.20;;;3.50;96.10;;;;;;2073784;28;20705;-66
2021/10/01 02:22:16;;;;;;;1.92;0.98;;;3.50;96.20;;;;;;2074236;28;20603;-66
2021/10/01 02:23:17;;;;;;;1.17;0.90;;;3.50;96.40;;;;;;2072538;28;20276;-65
2021/10/01 02:24:18;;;;;;;1.07;0.97;;;3.50;97.00;;;;;;2075175;28;20174;-65
2021/10/01 02:26:46;;;;;;;0.70;0.70;;;3.40;96.40;;;;;;2074063;28;20629;-65
2021/10/01 02:27:51;;;;;;;1.02;0.90;;;3.40;96.60;;;;;;2073774;28;20293;-66
2021/10/01 02:29:09;;;;;;;3.70;0.90;;;3.40;96.60;;;;;;2073846;28;20649;-66
2021/10/01 02:30:20;;;;;;;1.67;0.95;;;3.40;96.50;;;;;;2073724;28;20267;-65
2021/10/01 02:31:52;;;;;;;1.70;1.00;;;3.40;96.40;;;;;;2073553;28;20167;-67
2021/10/01 02:33:03;;;;;;;0.88;0.88;;;3.40;96.30;;;;;;2074462;28;20182;-65
2021/10/01 02:34:06;;;;;;;1.13;0.90;;;3.40;96.40;;;;;;2077728;28;20206;-66
2021/10/01 02:35:08;;;;;;;1.65;0.90;;;3.40;96.40;;;;;;2073777;28;20549;-65
2021/10/01 02:36:09;;;;;;;0.98;0.85;;;3.40;96.40;;;;;;2081860;28;20193;-66
2021/10/01 02:37:11;;;;;;;1.20;1.07;;;3.40;97.10;;;;;;2082461;28;20543;-66
2021/10/01 02:38:11;;;;;;;1.67;1.30;;;3.40;96.70;;;;;;2082363;28;20505;-65
2021/10/01 02:39:12;;;;;;;1.20;1.10;;;3.40;96.60;;;;;;2081864;28;20228;-65
2021/10/01 02:40:13;;;;;;;1.10;1.00;;;3.40;96.50;;;;;;2081828;28;20656;-65
2021/10/01 02:41:13;;;;;;;1.00;0.80;;;3.40;96.40;;;;;;2082296;28;20275;-65
2021/10/01 02:42:16;;;;;;;3.90;1.10;;;3.40;96.30;;;;;;2082523;28;20170;-65
2021/10/01 02:43:17;;;;;;;1.33;0.98;;;3.40;96.30;;;;;;2081947;28;20208;-64
2021/10/01 02:44:17;;;;;;;1.70;1.00;;;3.40;96.10;;;;;;2081761;28;20212;-65
2021/10/01 02:45:18;;;;;;;2.10;1.10;;;3.40;96.10;;;;;;2082344;28;20180;-66
2021/10/01 02:46:19;;;;;;;2.77;1.07;;;3.40;95.90;;;;;;2082355;28;20679;-67
2021/10/01 02:47:25;;;;;;;2.50;1.03;;;3.40;95.80;;;;;;2082348;28;20178;-65
2021/10/01 02:48:26;;;;;;;1.23;1.10;;;3.40;95.80;;;;;;2082341;28;20158;-65
2021/10/01 02:49:27;;;;;;;1.10;1.00;;;3.50;95.70;;;;;;2082405;28;20230;-64
2021/10/01 02:50:28;;;;;;;0.82;0.82;;;3.50;95.60;;;;;;2081693;28;20177;-65
2021/10/01 02:51:32;;;;;;;0.88;0.80;;;3.50;95.70;;;;;;2081428;28;20199;-66
2021/10/01 02:52:56;;;;;;;3.33;0.98;;;3.40;95.60;;;;;;2081729;28;20182;-65
2021/10/01 02:54:12;;;;;;;1.05;0.98;;;3.40;95.70;;;;;;2082059;28;20233;-65
2021/10/01 02:55:22;;;;;;;0.70;0.70;;;3.40;95.80;;;;;;2081745;28;20167;-64
2021/10/01 02:56:38;;;;;;;1.70;0.98;;;3.40;95.80;;;;;;2074714;28;20661;-64
2021/10/01 02:58:08;;;;;;;2.38;0.73;;;3.40;96.10;;;;;;2075601;28;20185;-65
2021/10/01 02:59:11;;;;;;;0.82;0.75;;;3.40;95.90;;;;;;2081909;28;20216;-65
2021/10/01 03:00:13;;;;;;;1.15;0.95;;;3.40;96.10;;;;;;2081694;28;20264;-65
2021/10/01 03:01:15;;;;;;;0.95;0.90;;;3.40;96.30;;;;;;2073234;28;20572;-67
2021/10/01 03:02:20;;;;;;;1.45;1.15;;;3.40;96.40;;;;;;2081760;28;20231;-65
2021/10/01 03:03:27;;;;;;;1.75;0.93;;;3.40;96.40;;;;;;2082138;28;20161;-65
2021/10/01 03:04:28;;;;;;;0.93;0.85;;;3.40;96.40;;;;;;2082301;28;20177;-64
2021/10/01 03:05:29;;;;;;;1.95;1.20;;;3.40;96.30;;;;;;2081602;28;20182;-65
2021/10/01 03:06:37;;;;;;;0.90;0.90;;;3.40;96.30;;;;;;2073516;28;20182;-67
2021/10/01 03:07:42;;;;;;;1.67;1.20;;;3.40;96.30;;;;;;2074486;28;20166;-65
2021/10/01 03:08:43;;;;;;;1.25;0.98;;;3.50;96.40;;;;;;2081661;28;20711;-65
2021/10/01 03:09:48;;;;;;;2.55;1.17;;;3.50;96.40;;;;;;2081516;28;20181;-65
2021/10/01 03:10:50;;;;;;;2.35;1.20;;;3.50;96.50;;;;;;2073884;28;20182;-64
2021/10/01 03:11:52;;;;;;;1.15;1.02;;;3.50;96.60;;;;;;2081379;28;20178;-65
2021/10/01 03:12:54;;;;;;;2.58;1.00;;;3.50;96.60;;;;;;2081630;28;20378;-65
2021/10/01 03:13:55;;;;;;;1.77;1.30;;;3.50;96.50;;;;;;2073343;28;20202;-64
2021/10/01 03:14:56;;;;;;;2.73;1.43;;;3.50;96.60;;;;;;2073389;28;20178;-65
2021/10/01 03:15:59;;;;;;;2.50;1.20;;;3.50;96.60;;;;;;2081651;28;20495;-65
2021/10/01 03:17:00;;;;;;;2.50;0.95;;;3.50;96.80;;;;;;2082104;28;20182;-65
2021/10/01 03:18:02;;;;;;;2.03;1.40;;;3.50;96.90;;;;;;2081351;28;20185;-65
2021/10/01 03:19:04;;;;;;;1.67;1.20;;;3.50;96.90;;;;;;2073280;28;20241;-64
2021/10/01 03:20:06;;;;;;;3.50;0.90;;;3.50;96.90;;;;;;2073531;28;20178;-65
2021/10/01 03:21:07;;;;;;;2.80;1.20;;;3.50;97.10;;;;;;2073216;28;20186;-64
2021/10/01 03:22:08;;;;;;;4.88;1.60;;;3.50;97.20;;;;;;2081486;28;20182;-65
2021/10/01 03:23:19;;;;;;;2.50;1.30;;;3.60;97.40;;;;;;2081481;28;20179;-65
2021/10/01 03:24:21;;;;;;;2.78;1.20;;;3.60;97.40;;;;;;2074675;28;20172;-66
2021/10/01 03:25:22;;;;;;;2.20;1.42;;;3.60;97.60;;;;;;2073424;28;20179;-67
2021/10/01 03:26:25;;;;;;;2.72;1.55;;;3.60;97.70;;;;;;2081440;28;20525;-64
2021/10/01 03:27:34;;;;;;;1.65;1.35;;;3.60;97.90;;;;;;2082308;28;20232;-65
2021/10/01 03:28:37;;;;;;;4.32;1.33;;;3.70;97.90;;;;;;2081348;28;20702;-65
2021/10/01 03:29:38;;;;;;;1.42;1.33;;;3.70;97.80;;;;;;2073574;28;20180;-65
2021/10/01 03:30:45;;;;;;;3.33;1.20;;;3.70;97.70;;;;;;2080948;28;20189;-65
2021/10/01 03:31:49;;;;;;;5.20;1.67;;;3.70;97.60;;;;;;2081173;28;20178;-65
2021/10/01 03:32:49;;;;;;;2.40;1.35;;;3.70;97.70;;;;;;2081460;28;20721;-65
2021/10/01 03:33:50;;;;;;;2.87;1.40;;;3.60;97.80;;;;;;2081833;28;20206;-67
2021/10/01 03:34:51;;;;;;;2.57;1.10;;;3.60;97.80;;;;;;2082056;28;20688;-65
2021/10/01 03:35:52;;;;;;;2.30;1.67;;;3.60;97.70;;;;;;2081983;28;20194;-65
2021/10/01 03:36:52;;;;;;;2.63;2.10;;;3.60;97.60;;;;;;2081351;28;20192;-66
2021/10/01 03:37:53;;;;;;;4.57;2.97;;;3.70;97.50;;;;;;2081412;28;20187;-65
2021/10/01 03:38:56;;;;;;;6.10;3.63;;;3.60;97.20;;;;;;2081795;28;20179;-66
2021/10/01 03:40:00;;;;;;;1.65;1.40;;;3.60;97.20;;;;;;2082110;28;20182;-66
2021/10/01 03:41:01;;;;;;;7.20;2.58;;;3.60;97.10;;;;;;2081192;28;20174;-66
2021/10/01 03:42:01;;;;;;;4.13;2.70;;;3.60;97.10;;;;;;2073187;28;20309;-64
2021/10/01 03:43:02;;;;;;;8.60;5.00;;;3.50;97.20;;;;;;2073051;28;20270;-64
2021/10/01 03:44:04;;;;;;;3.03;2.17;;;3.50;97.10;;;;;;2081192;28;20194;-65
2021/10/01 03:45:08;;;;;;;2.20;1.83;;;3.50;97.20;;;;;;2081835;28;20184;-67
2021/10/01 03:46:08;;;;;;;6.70;2.47;;;3.40;97.30;;;;;;2081295;28;20213;-64
2021/10/01 03:47:09;;;;;;;3.07;2.40;;;3.40;97.30;;;;;;2081319;28;20211;-66
2021/10/01 03:48:11;;;;;;;5.03;3.73;;;3.40;97.30;;;;;;2081888;28;20214;-65
2021/10/01 03:49:12;;;;;;;8.25;4.28;;;3.50;97.30;;;;;;2081827;28;20674;-64
2021/10/01 03:50:13;;;;;;;6.93;4.50;;;3.40;97.20;;;;;;2081826;28;20182;-65
2021/10/01 03:51:13;;;;;;;7.33;4.67;;;3.50;97.10;;;;;;2081472;28;20560;-65
2021/10/01 03:52:15;;;;;;;5.43;4.17;;;3.50;97.10;;;;;;2081943;28;20206;-64
2021/10/01 03:53:15;;;;;;;4.75;3.55;;;3.50;97.00;;;;;;2081230;28;20739;-65
2021/10/01 03:54:16;;;;;;;5.37;4.40;;;3.50;97.00;;;;;;2081511;28;20248;-65
2021/10/01 03:55:21;;;;;;;7.07;5.25;;;3.50;97.20;;;;;;2081337;28;20186;-65
2021/10/01 03:56:22;;;;;;;7.32;5.10;;;3.50;97.20;;;;;;2081668;28;20261;-65
2021/10/01 03:57:23;;;;;;;6.88;5.60;;;3.50;97.10;;;;;;2081520;28;20179;-64
2021/10/01 03:58:24;;;;;;;6.93;6.20;;;3.50;97.10;;;;;;2081433;28;20193;-64
2021/10/01 03:59:24;;;;;;;9.57;5.90;;;3.50;97.10;;;;;;2081118;28;20374;-64
2021/10/01 04:00:25;;;;;;;10.30;7.93;;;3.50;97.20;;;;;;2081459;28;20177;-67
2021/10/01 04:01:26;;;;;;;10.35;7.13;;;3.50;97.10;;;;;;2081291;28;20232;-65
2021/10/01 04:02:27;;;;;;;8.47;6.60;;;3.50;97.00;;;;;;2081848;28;20189;-65
2021/10/01 04:03:27;;;;;;;12.43;8.00;;;3.50;97.00;;;;;;2082561;28;20180;-66
2021/10/01 04:04:28;;;;;;;12.50;7.93;;;3.50;97.00;;;;;;2082461;28;20180;-66
2021/10/01 04:05:29;;;;;;;10.13;7.63;;;3.50;96.80;;;;;;2081929;28;20548;-67
2021/10/01 04:06:30;;;;;;;9.87;7.40;;;3.50;96.70;;;;;;2082179;28;20187;-65
2021/10/01 04:07:30;;;;;;;9.53;7.30;;;3.50;96.70;;;;;;2082060;28;20190;-64
2021/10/01 04:08:32;;;;;;;7.23;6.30;;;3.50;96.80;;;;;;2082028;28;20189;-67
2021/10/01 04:09:33;;;;;;;6.32;3.45;;;3.50;97.00;;;;;;2081982;28;20198;-66
2021/10/01 04:10:34;;;;;;;5.47;3.80;;;3.50;97.10;;;;;;2082132;28;20192;-65
2021/10/01 04:11:37;;;;;;;4.77;3.30;;;3.50;97.20;;;;;;2081682;28;20187;-65
2021/10/01 04:12:39;;;;;;;3.80;3.00;;;3.50;97.30;;;;;;2081985;28;20201;-65
2021/10/01 04:13:40;;;;;;;3.97;2.38;;;3.50;97.30;;;;;;2081322;28;20206;-65
2021/10/01 04:14:40;;;;;;;3.43;2.90;;;3.50;97.40;;;;;;2081408;28;20186;-65
2021/10/01 04:15:41;;;;;;;3.67;2.37;;;3.50;97.60;;;;;;2080636;28;20197;-67
2021/10/01 04:16:42;;;;;;;3.13;2.57;;;3.50;97.60;;;;;;2075907;28;20211;-65
2021/10/01 04:17:42;;;;;;;5.23;2.40;;;3.60;97.60;;;;;;2073810;28;20233;-65
2021/10/01 04:18:43;;;;;;;3.20;2.10;;;3.60;97.60;;;;;;2073790;28;20566;-67
2021/10/01 04:19:44;;;;;;;2.63;2.20;;;3.60;97.50;;;;;;2073915;28;20182;-66
2021/10/01 04:20:46;;;;;;;3.20;2.00;;;3.60;97.40;;;;;;2073868;28;20191;-65
2021/10/01 04:21:47;;;;;;;3.45;1.95;;;3.60;97.30;;;;;;2073108;28;20253;-65
2021/10/01 04:22:47;;;;;;;2.25;1.98;;;3.60;97.30;;;;;;2073254;28;20195;-64
2021/10/01 04:23:48;;;;;;;3.27;1.90;;;3.60;97.30;;;;;;2073671;28;20459;-65
2021/10/01 04:24:49;;;;;;;3.07;1.97;;;3.60;97.30;;;;;;2073713;28;20189;-65
2021/10/01 04:25:49;;;;;;;2.13;1.70;;;3.60;97.40;;;;;;2073872;28;20181;-66
2021/10/01 04:26:50;;;;;;;3.00;1.90;;;3.60;97.50;;;;;;2073721;28;20201;-66
2021/10/01 04:27:51;;;;;;;4.80;1.70;;;3.60;97.40;;;;;;2073259;28;20260;-65
2021/10/01 04:28:52;;;;;;;2.77;1.80;;;3.60;97.40;;;;;;2073121;28;20318;-66
2021/10/01 04:29:52;;;;;;;3.83;1.90;;;3.60;97.20;;;;;;2073919;28;20186;-65
2021/10/01 04:30:53;;;;;;;3.87;2.07;;;3.60;97.10;;;;;;2073721;28;20193;-64
2021/10/01 04:31:54;;;;;;;4.40;2.10;;;3.70;97.10;;;;;;2073512;28;20185;-64
2021/10/01 04:33:11;;;;;;;3.90;2.50;;;3.70;97.40;;;;;;2073486;28;20218;-64
2021/10/01 04:34:11;;;;;;;5.65;2.28;;;3.70;97.50;;;;;;2073587;28;20227;-66
2021/10/01 04:35:12;;;;;;;3.17;2.13;;;3.70;97.50;;;;;;2073648;28;20236;-65
2021/10/01 04:36:13;;;;;;;3.27;2.43;;;3.70;97.40;;;;;;2073744;28;20181;-65
2021/10/01 04:37:14;;;;;;;5.30;2.53;;;3.70;97.40;;;;;;2073775;28;20203;-66
2021/10/01 04:38:15;;;;;;;3.30;2.17;;;3.70;97.50;;;;;;2073732;28;20171;-65
2021/10/01 04:39:16;;;;;;;4.53;2.42;;;3.60;97.50;;;;;;2073586;28;20201;-66
2021/10/01 04:40:17;;;;;;;6.70;2.10;;;3.60;97.50;;;;;;2073636;28;20289;-65
2021/10/01 04:41:18;;;;;;;4.40;2.27;;;3.60;97.40;;;;;;2073297;28;20261;-64
2021/10/01 04:42:19;;;;;;;6.03;2.20;;;3.60;97.30;;;;;;2072965;28;20182;-64
2021/10/01 04:43:20;;;;;;;2.40;2.10;;;3.50;97.20;;;;;;2073462;28;20176;-65
2021/10/01 04:44:20;;;;;;;4.13;2.00;;;3.40;97.20;;;;;;2073562;28;20182;-64
2021/10/01 04:45:21;;;;;;;2.17;1.87;;;3.40;97.20;;;;;;2073517;28;20180;-65
2021/10/01 04:46:22;;;;;;;3.57;2.10;;;3.30;97.20;;;;;;2073558;28;20263;-65
2021/10/01 04:47:23;;;;;;;2.60;1.80;;;3.30;97.20;;;;;;2073468;28;20175;-64
2021/10/01 04:48:24;;;;;;;2.53;1.80;;;3.30;97.10;;;;;;2073610;28;20550;-66
2021/10/01 04:49:25;;;;;;;4.03;1.98;;;3.30;97.00;;;;;;2073641;28;20175;-65
2021/10/01 04:50:26;;;;;;;2.37;1.80;;;3.30;96.80;;;;;;2073466;28;20182;-65
2021/10/01 04:51:27;;;;;;;3.23;2.30;;;3.30;96.70;;;;;;2073425;28;20170;-65
2021/10/01 04:52:27;;;;;;;4.90;1.70;;;3.30;96.60;;;;;;2073762;28;20234;-65
2021/10/01 04:53:28;;;;;;;4.00;2.17;;;3.30;96.80;;;;;;2073543;28;20213;-64
2021/10/01 04:54:29;;;;;;;3.30;2.20;;;3.30;96.70;;;;;;2073439;28;20221;-64
2021/10/01 04:55:32;;;;;;;3.87;1.87;;;3.30;96.60;;;;;;2073496;28;20224;-63
2021/10/01 04:56:33;;;;;;;3.85;1.85;;;3.30;96.40;;;;;;2073424;28;20188;-66
2021/10/01 04:57:34;;;;;;;3.77;2.40;;;3.30;96.30;;;;;;2072970;28;20187;-63
2021/10/01 04:58:35;;;;;;;3.17;2.10;;;3.30;96.40;;;;;;2072869;28;20209;-64
2021/10/01 04:59:36;;;;;;;2.65;1.80;;;3.30;96.30;;;;;;2073137;28;20603;-66
2021/10/01 05:00:37;;;;;;;3.10;2.07;;;3.30;96.20;;;;;;2073239;28;20193;-63
2021/10/01 05:01:37;;;;;;;3.17;1.90;;;3.30;96.00;;;;;;2072919;28;20278;-62
2021/10/01 05:02:38;;;;;;;3.53;2.30;;;3.20;95.90;;;;;;2073286;28;20182;-64
2021/10/01 05:03:39;;;;;;;1.97;1.77;;;3.20;96.10;;;;;;2073186;28;20666;-63
2021/10/01 05:04:39;;;;;;;2.67;1.77;;;3.10;96.40;;;;;;2073178;28;20233;-63
2021/10/01 05:05:40;;;;;;;2.60;1.80;;;3.20;96.80;;;;;;2073260;28;20189;-62
2021/10/01 05:06:42;;;;;;;3.70;1.90;;;3.20;96.20;;;;;;2072638;28;20611;-64
2021/10/01 05:07:42;;;;;;;2.70;1.92;;;3.10;96.20;;;;;;2064585;28;20208;-64
2021/10/01 05:08:43;;;;;;;5.63;2.27;;;3.10;96.30;;;;;;2072628;28;20249;-63
2021/10/01 05:09:44;;;;;;;3.90;2.00;;;3.10;96.50;;;;;;2072991;28;20178;-65
2021/10/01 05:10:44;;;;;;;4.10;2.17;;;3.10;96.50;;;;;;2073121;28;20261;-64
2021/10/01 05:11:45;;;;;;;7.13;2.07;;;3.10;96.40;;;;;;2072970;28;20707;-64
2021/10/01 05:12:46;;;;;;;3.27;2.37;;;3.10;96.50;;;;;;2073270;28;20183;-63
2021/10/01 05:13:47;;;;;;;3.10;2.23;;;3.10;96.60;;;;;;2073069;28;20222;-64
2021/10/01 05:14:47;;;;;;;3.77;2.33;;;3.10;96.60;;;;;;2073244;28;20209;-63
2021/10/01 05:15:48;;;;;;;7.20;2.87;;;3.10;96.70;;;;;;2072498;28;20719;-63
2021/10/01 05:16:49;;;;;;;2.75;2.13;;;3.00;96.90;;;;;;2072516;28;20673;-63
2021/10/01 05:17:51;;;;;;;3.17;2.10;;;3.00;96.80;;;;;;2073151;28;20252;-63
2021/10/01 05:18:52;;;;;;;2.67;2.22;;;3.00;96.70;;;;;;2072436;28;20193;-63
2021/10/01 05:19:53;;;;;;;4.20;2.17;;;3.10;96.70;;;;;;2072643;28;20226;-64
2021/10/01 05:20:53;;;;;;;2.60;2.40;;;3.10;96.60;;;;;;2073026;28;20184;-64
2021/10/01 05:21:54;;;;;;;3.87;2.10;;;3.10;96.60;;;;;;2072943;28;20180;-63
2021/10/01 05:22:55;;;;;;;5.43;2.47;;;3.00;96.60;;;;;;2073118;28;20189;-63
2021/10/01 05:23:55;;;;;;;2.87;2.20;;;3.00;96.60;;;;;;2073190;28;20190;-62
2021/10/01 05:24:56;;;;;;;4.23;2.10;;;3.10;96.40;;;;;;2073093;28;20177;-64
2021/10/01 05:25:58;;;;;;;2.50;2.17;;;3.10;96.40;;;;;;2073082;28;20548;-65
2021/10/01 05:26:59;;;;;;;2.17;1.98;;;3.10;96.60;;;;;;2073118;28;20277;-66
2021/10/01 05:28:00;;;;;;;5.47;2.20;;;3.10;96.70;;;;;;2073130;28;20183;-65
2021/10/01 05:29:01;;;;;;;2.97;2.10;;;3.10;96.90;;;;;;2072461;28;20178;-64
2021/10/01 05:30:04;;;;;;;3.00;1.93;;;3.10;96.90;;;;;;2072587;28;20686;-64
2021/10/01 05:31:05;;;;;;;3.55;2.17;;;3.10;97.00;;;;;;2072124;28;20178;-64
2021/10/01 05:32:06;;;;;;;2.57;1.93;;;3.10;97.20;;;;;;2072544;28;20606;-64
2021/10/01 05:33:08;;;;;;;1.95;1.73;;;3.10;97.20;;;;;;2073169;28;20183;-65
2021/10/01 05:34:09;;;;;;;3.97;2.40;;;3.10;97.20;;;;;;2073069;28;20198;-65
2021/10/01 05:35:10;;;;;;;5.63;2.10;;;3.10;97.50;;;;;;2073111;28;20269;-64
2021/10/01 05:36:11;;;;;;;3.60;2.03;;;3.20;97.70;;;;;;2073095;28;20192;-65
2021/10/01 05:37:12;;;;;;;2.22;1.85;;;3.20;97.70;;;;;;2072991;28;20527;-64